createdAt,value
2018-04-18T00:01:44.453Z,99.90
2018-04-18T00:04:12.539Z,99.90
2018-04-18T00:06:42.249Z,99.90
2018-04-18T00:09:10.617Z,99.90
2018-04-18T00:11:38.591Z,99.90
2018-04-18T00:14:06.663Z,99.90
2018-04-18T00:16:34.573Z,99.90
2018-04-18T00:19:02.610Z,99.90
2018-04-18T00:21:30.680Z,99.90
2018-04-18T00:23:58.647Z,99.90
2018-04-18T00:26:26.813Z,99.90
2018-04-18T00:28:54.889Z,99.90
2018-04-18T00:31:23.041Z,99.90
2018-04-18T00:33:50.929Z,99.90
2018-04-18T00:36:18.997Z,99.90
2018-04-18T00:38:46.970Z,99.90
2018-04-18T00:41:15.960Z,99.90
2018-04-18T00:43:44.197Z,99.90
2018-04-18T00:46:12.309Z,99.90
2018-04-18T00:48:40.373Z,99.90
2018-04-18T00:51:08.245Z,99.90
2018-04-18T00:53:36.282Z,99.90
2018-04-18T00:56:04.358Z,99.90
2018-04-18T00:58:32.761Z,99.90
2018-04-18T01:01:00.835Z,99.90
2018-04-18T01:03:28.999Z,99.90
2018-04-18T01:05:57.185Z,99.90
2018-04-18T01:08:25.565Z,99.90
2018-04-18T01:10:53.727Z,99.90
2018-04-18T01:13:21.803Z,99.90
2018-04-18T01:15:50.080Z,99.90
2018-04-18T01:18:17.948Z,99.90
2018-04-18T01:20:45.911Z,99.90
2018-04-18T01:23:14.190Z,99.90
2018-04-18T01:25:43.189Z,99.90
2018-04-18T01:28:12.144Z,99.90
2018-04-18T01:30:40.047Z,99.90
2018-04-18T01:33:08.213Z,99.90
2018-04-18T01:35:36.259Z,99.90
2018-04-18T01:38:04.459Z,99.90
2018-04-18T01:40:32.627Z,99.90
2018-04-18T01:43:00.493Z,99.90
2018-04-18T01:45:28.571Z,99.90
2018-04-18T01:47:56.638Z,99.90
2018-04-18T01:50:24.507Z,99.90
2018-04-18T01:52:52.474Z,99.90
2018-04-18T01:55:21.563Z,99.90
2018-04-18T01:57:49.838Z,99.90
2018-04-18T02:00:17.888Z,99.90
2018-04-18T02:02:45.884Z,99.90
2018-04-18T02:05:14.056Z,99.90
2018-04-18T02:07:42.240Z,99.90
2018-04-18T02:10:10.412Z,99.90
2018-04-18T02:12:38.279Z,99.90
2018-04-18T02:15:06.341Z,99.90
2018-04-18T02:17:34.388Z,99.90
2018-04-18T02:20:02.686Z,99.90
2018-04-18T02:22:30.652Z,99.90
2018-04-18T02:24:58.522Z,99.90
2018-04-18T02:27:26.693Z,99.90
2018-04-18T02:29:54.867Z,99.90
2018-04-18T02:32:22.938Z,99.90
2018-04-18T02:34:50.902Z,99.90
2018-04-18T02:37:19.599Z,99.90
2018-04-18T02:39:47.558Z,99.90
2018-04-18T02:42:15.629Z,99.90
2018-04-18T02:44:43.800Z,99.90
2018-04-18T02:47:11.667Z,99.90
2018-04-18T02:49:39.747Z,99.90
2018-04-18T02:52:08.421Z,99.90
2018-04-18T02:54:36.394Z,99.90
2018-04-18T02:57:04.460Z,99.90
2018-04-18T02:59:32.544Z,99.90
2018-04-18T03:02:00.505Z,99.90
2018-04-18T03:04:28.476Z,99.90
2018-04-18T03:06:56.652Z,99.90
2018-04-18T03:09:24.817Z,99.90
2018-04-18T03:11:52.685Z,99.90
2018-04-18T03:14:20.751Z,99.90
2018-04-18T03:16:48.726Z,99.90
2018-04-18T03:19:16.994Z,99.90
2018-04-18T03:21:44.821Z,99.90
2018-04-18T03:24:13.035Z,99.90
2018-04-18T03:26:41.315Z,99.90
2018-04-18T03:29:09.576Z,99.90
2018-04-18T03:31:37.458Z,99.90
2018-04-18T03:34:05.527Z,99.90
2018-04-18T03:36:33.493Z,99.90
2018-04-18T03:39:01.773Z,99.90
2018-04-18T03:41:29.942Z,99.90
2018-04-18T03:43:58.118Z,99.90
2018-04-18T03:46:26.089Z,99.90
2018-04-18T03:48:54.219Z,99.90
2018-04-18T03:51:22.736Z,99.90
2018-04-18T03:53:50.772Z,99.90
2018-04-18T03:56:18.676Z,99.90
2018-04-18T03:58:46.719Z,99.90
2018-04-18T04:01:14.816Z,99.90
2018-04-18T04:03:42.955Z,99.90
2018-04-18T04:06:10.857Z,99.90
2018-04-18T04:08:39.138Z,99.90
2018-04-18T04:11:07.514Z,99.90
2018-04-18T04:13:35.600Z,99.90
2018-04-18T04:16:04.473Z,99.90
2018-04-18T04:18:44.212Z,99.90
2018-04-18T04:21:24.061Z,99.90
2018-04-18T04:24:03.706Z,99.90
2018-04-18T04:26:32.576Z,99.90
2018-04-18T04:29:00.459Z,99.90
2018-04-18T04:31:28.544Z,99.90
2018-04-18T04:33:56.704Z,99.90
2018-04-18T04:36:24.878Z,99.90
2018-04-18T04:38:53.057Z,99.90
2018-04-18T04:41:20.917Z,99.90
2018-04-18T04:43:49.314Z,99.90
2018-04-18T04:46:17.672Z,99.90
2018-04-18T04:48:46.027Z,99.90
2018-04-18T04:51:14.030Z,99.90
2018-04-18T04:53:43.237Z,99.90
2018-04-18T04:56:11.910Z,99.90
2018-04-18T04:58:41.414Z,99.90
2018-04-18T05:01:10.293Z,99.90
2018-04-18T05:03:38.473Z,99.90
2018-04-18T05:06:06.632Z,99.90
2018-04-18T05:08:34.816Z,99.90
2018-04-18T05:11:03.401Z,99.90
2018-04-18T05:13:31.579Z,99.90
2018-04-18T05:16:00.439Z,99.90
2018-04-18T05:18:28.849Z,99.90
2018-04-18T05:20:56.887Z,99.90
2018-04-18T05:23:25.186Z,99.90
2018-04-18T05:25:53.645Z,99.90
2018-04-18T05:28:21.636Z,99.90
2018-04-18T05:30:50.077Z,99.90
2018-04-18T05:33:18.357Z,99.90
2018-04-18T05:35:46.361Z,99.90
2018-04-18T05:38:15.381Z,99.90
2018-04-18T05:40:44.831Z,99.90
2018-04-18T05:43:13.141Z,99.90
2018-04-18T05:45:41.396Z,99.90
2018-04-18T05:48:09.588Z,99.90
2018-04-18T05:50:38.273Z,99.90
2018-04-18T05:53:06.436Z,99.90
2018-04-18T05:55:34.661Z,99.90
2018-04-18T05:58:02.892Z,99.90
2018-04-18T06:00:32.837Z,99.90
2018-04-18T06:03:02.384Z,99.90
2018-04-18T06:05:30.895Z,99.90
2018-04-18T06:07:59.281Z,99.90
2018-04-18T06:10:27.440Z,99.90
2018-04-18T06:12:55.853Z,99.90
2018-04-18T06:15:24.816Z,99.90
2018-04-18T06:17:53.807Z,99.90
2018-04-18T06:20:22.292Z,99.50
2018-04-18T06:22:50.151Z,98.10
2018-04-18T06:25:18.226Z,97.40
2018-04-18T06:27:46.092Z,96.90
2018-04-18T06:30:14.159Z,96.10
2018-04-18T06:32:42.238Z,95.00
2018-04-18T06:35:10.612Z,93.40
2018-04-18T06:37:38.777Z,93.60
2018-04-18T06:40:06.869Z,92.80
2018-04-18T06:42:34.832Z,92.70
2018-04-18T06:45:02.902Z,92.40
2018-04-18T06:47:30.864Z,91.20
2018-04-18T06:49:58.999Z,90.50
2018-04-18T06:52:27.187Z,90.80
2018-04-18T06:54:56.115Z,85.10
2018-04-18T06:57:24.077Z,85.10
2018-04-18T06:59:52.644Z,85.60
2018-04-18T07:02:21.319Z,84.50
2018-04-18T07:05:04.839Z,84.40
2018-04-18T07:07:50.379Z,79.10
2018-04-18T07:10:23.180Z,75.10
2018-04-18T07:12:51.701Z,74.90
2018-04-18T07:15:19.898Z,74.40
2018-04-18T07:17:47.957Z,73.00
2018-04-18T07:20:16.973Z,71.20
2018-04-18T07:22:45.849Z,65.70
2018-04-18T07:25:13.920Z,65.70
2018-04-18T07:27:45.103Z,62.70
2018-04-18T07:30:15.198Z,64.90
2018-04-18T07:32:44.284Z,57.50
2018-04-18T07:35:12.956Z,57.40
2018-04-18T07:37:41.493Z,58.00
2018-04-18T07:40:09.621Z,55.60
2018-04-18T07:42:37.575Z,55.40
2018-04-18T07:45:07.122Z,54.10
2018-04-18T07:47:36.041Z,51.10
2018-04-18T07:50:03.947Z,51.10
2018-04-18T07:52:32.340Z,50.00
2018-04-18T07:55:01.431Z,50.90
2018-04-18T07:57:30.802Z,49.20
2018-04-18T07:59:59.533Z,49.20
2018-04-18T08:02:28.295Z,45.30
2018-04-18T08:04:56.602Z,44.80
2018-04-18T08:07:25.364Z,44.30
2018-04-18T08:09:53.809Z,44.30
2018-04-18T08:12:22.209Z,46.00
2018-04-18T08:14:50.282Z,44.50
2018-04-18T08:17:18.642Z,43.60
2018-04-18T08:19:46.941Z,41.40
2018-04-18T08:22:15.298Z,41.20
2018-04-18T08:24:43.900Z,42.90
2018-04-18T08:27:12.488Z,42.00
2018-04-18T08:29:40.935Z,44.00
2018-04-18T08:32:09.336Z,41.60
2018-04-18T08:34:37.612Z,40.00
2018-04-18T08:37:05.961Z,41.70
2018-04-18T08:39:34.062Z,39.30
2018-04-18T08:42:02.522Z,40.50
2018-04-18T08:44:31.041Z,40.70
2018-04-18T08:46:59.617Z,38.20
2018-04-18T08:49:28.080Z,37.10
2018-04-18T08:51:56.437Z,36.80
2018-04-18T08:54:24.949Z,36.20
2018-04-18T08:56:53.269Z,36.20
2018-04-18T08:59:21.560Z,34.70
2018-04-18T09:01:50.614Z,35.40
2018-04-18T09:04:19.709Z,35.30
2018-04-18T09:07:02.760Z,34.70
2018-04-18T09:09:38.117Z,35.30
2018-04-18T09:12:16.890Z,35.00
2018-04-18T09:14:45.172Z,34.00
2018-04-18T09:17:15.216Z,32.40
2018-04-18T09:19:43.564Z,32.50
2018-04-18T09:22:13.057Z,33.80
2018-04-18T09:24:41.486Z,33.80
2018-04-18T09:27:10.782Z,34.30
2018-04-18T09:29:39.422Z,35.90
2018-04-18T09:32:08.414Z,33.30
2018-04-18T09:34:38.398Z,34.40
2018-04-18T09:37:06.973Z,33.80
2018-04-18T09:39:35.085Z,33.30
2018-04-18T09:42:03.968Z,31.30
2018-04-18T09:44:32.662Z,31.30
2018-04-18T09:47:01.939Z,32.00
2018-04-18T09:49:30.953Z,30.30
2018-04-18T09:52:00.151Z,30.70
2018-04-18T09:54:29.145Z,31.40
2018-04-18T09:56:58.346Z,32.10
2018-04-18T09:59:27.528Z,30.10
2018-04-18T10:01:55.496Z,30.10
2018-04-18T10:04:29.611Z,31.00
2018-04-18T10:06:57.780Z,29.70
2018-04-18T10:09:25.875Z,28.70
2018-04-18T10:11:55.156Z,27.50
2018-04-18T10:14:23.015Z,27.50
2018-04-18T10:16:50.996Z,29.10
2018-04-18T10:19:19.056Z,28.10
2018-04-18T10:21:47.229Z,29.20
2018-04-18T10:24:15.272Z,27.60
2018-04-18T10:26:43.360Z,28.00
2018-04-18T10:29:11.923Z,27.20
2018-04-18T10:31:41.108Z,28.00
2018-04-18T10:34:09.289Z,27.90
2018-04-18T10:36:37.395Z,27.80
2018-04-18T10:39:06.287Z,26.80
2018-04-18T10:41:34.574Z,27.40
2018-04-18T10:44:02.539Z,27.40
2018-04-18T10:46:30.807Z,26.70
2018-04-18T10:48:59.096Z,27.20
2018-04-18T10:51:27.359Z,26.70
2018-04-18T10:53:55.647Z,27.20
2018-04-18T10:56:23.882Z,27.20
2018-04-18T10:58:51.881Z,28.40
2018-04-18T11:01:19.950Z,27.00
2018-04-18T11:03:48.195Z,27.00
2018-04-18T11:06:16.200Z,26.60
2018-04-18T11:08:44.266Z,25.70
2018-04-18T11:11:12.231Z,28.80
2018-04-18T11:13:40.304Z,27.50
2018-04-18T11:16:08.484Z,27.50
2018-04-18T11:18:36.655Z,28.10
2018-04-18T11:21:04.834Z,27.50
2018-04-18T11:23:33.107Z,25.90
2018-04-18T11:26:01.072Z,27.60
2018-04-18T11:28:29.121Z,27.70
2018-04-18T11:30:57.113Z,27.60
2018-04-18T11:33:25.589Z,25.90
2018-04-18T11:35:53.633Z,26.40
2018-04-18T11:38:21.529Z,27.70
2018-04-18T11:40:50.017Z,26.40
2018-04-18T11:43:18.244Z,26.00
2018-04-18T11:45:46.585Z,25.40
2018-04-18T11:48:15.452Z,25.20
2018-04-18T11:50:43.627Z,25.20
2018-04-18T11:53:11.915Z,26.80
2018-04-18T11:55:40.893Z,27.40
2018-04-18T11:58:09.987Z,26.20
2018-04-18T12:00:38.776Z,25.70
2018-04-18T12:03:07.067Z,26.30
2018-04-18T12:05:35.025Z,25.50
2018-04-18T12:08:03.189Z,26.30
2018-04-18T12:10:31.061Z,27.00
2018-04-18T12:12:59.230Z,25.50
2018-04-18T12:15:27.624Z,26.10
2018-04-18T12:17:55.791Z,25.90
2018-04-18T12:20:23.959Z,27.50
2018-04-18T12:22:51.826Z,25.40
2018-04-18T12:25:19.997Z,26.70
2018-04-18T12:27:47.867Z,26.00
2018-04-18T12:30:16.224Z,26.00
2018-04-18T12:32:44.109Z,25.90
2018-04-18T12:35:12.386Z,27.10
2018-04-18T12:37:40.650Z,26.90
2018-04-18T12:40:09.053Z,26.40
2018-04-18T12:42:37.833Z,26.20
2018-04-18T12:45:06.260Z,26.20
2018-04-18T12:47:34.587Z,29.00
2018-04-18T12:50:02.757Z,27.10
2018-04-18T12:52:33.918Z,26.20
2018-04-18T12:55:03.119Z,27.30
2018-04-18T12:57:31.076Z,27.30
2018-04-18T12:59:59.214Z,26.20
2018-04-18T13:02:27.746Z,27.40
2018-04-18T13:04:57.117Z,26.70
2018-04-18T13:07:27.207Z,26.70
2018-04-18T13:09:55.514Z,26.90
2018-04-18T13:12:23.821Z,26.20
2018-04-18T13:14:51.965Z,26.90
2018-04-18T13:17:19.937Z,27.60
2018-04-18T13:19:47.902Z,28.40
2018-04-18T13:22:16.072Z,27.50
2018-04-18T13:24:44.252Z,26.20
2018-04-18T13:27:13.955Z,28.20
2018-04-18T13:29:42.540Z,28.10
2018-04-18T13:32:11.044Z,27.30
2018-04-18T13:34:40.208Z,27.80
2018-04-18T13:37:08.389Z,27.80
2018-04-18T13:39:36.639Z,27.30
2018-04-18T13:42:05.537Z,27.70
2018-04-18T13:44:34.517Z,27.50
2018-04-18T13:47:02.622Z,28.10
2018-04-18T13:49:30.669Z,28.50
2018-04-18T13:51:58.874Z,28.60
2018-04-18T13:54:26.954Z,27.80
2018-04-18T13:56:55.009Z,28.20
2018-04-18T13:59:23.398Z,27.20
2018-04-18T14:01:51.976Z,26.40
2018-04-18T14:04:20.549Z,25.70
2018-04-18T14:06:48.899Z,25.90
2018-04-18T14:09:17.103Z,25.80
2018-04-18T14:11:45.281Z,26.10
2018-04-18T14:14:13.893Z,26.30
2018-04-18T14:16:43.223Z,26.10
2018-04-18T14:19:11.824Z,26.10
2018-04-18T14:21:41.445Z,26.40
2018-04-18T14:24:09.739Z,27.20
2018-04-18T14:26:38.044Z,27.80
2018-04-18T14:29:06.815Z,26.50
2018-04-18T14:31:35.891Z,28.60
2018-04-18T14:34:03.859Z,28.50
2018-04-18T14:36:32.155Z,26.70
2018-04-18T14:39:01.028Z,26.80
2018-04-18T14:41:30.132Z,26.80
2018-04-18T14:43:58.367Z,26.80
2018-04-18T14:46:26.668Z,27.60
2018-04-18T14:48:54.847Z,27.60
2018-04-18T14:51:23.382Z,27.20
2018-04-18T14:53:51.719Z,27.20
2018-04-18T14:56:20.704Z,28.90
2018-04-18T14:58:48.863Z,28.90
2018-04-18T15:01:16.936Z,28.00
2018-04-18T15:03:45.111Z,28.20
2018-04-18T15:06:13.399Z,27.90
2018-04-18T15:08:41.357Z,27.40
2018-04-18T15:11:09.439Z,28.80
2018-04-18T15:13:37.803Z,27.50
2018-04-18T15:16:06.079Z,28.30
2018-04-18T15:18:33.950Z,28.50
2018-04-18T15:21:02.030Z,29.10
2018-04-18T15:23:30.057Z,30.00
2018-04-18T15:25:58.470Z,29.50
2018-04-18T15:28:26.770Z,29.50
2018-04-18T15:30:55.019Z,29.40
2018-04-18T15:33:23.091Z,30.40
2018-04-18T15:35:51.543Z,30.80
2018-04-18T15:38:19.948Z,30.00
2018-04-18T15:40:48.030Z,30.30
2018-04-18T15:43:16.199Z,31.40
2018-04-18T15:45:44.874Z,31.20
2018-04-18T15:48:13.053Z,31.70
2018-04-18T15:50:41.228Z,31.10
2018-04-18T15:53:09.198Z,32.10
2018-04-18T15:55:37.255Z,32.10
2018-04-18T15:58:05.750Z,33.90
2018-04-18T16:00:33.795Z,34.30
2018-04-18T16:03:01.697Z,35.90
2018-04-18T16:05:30.468Z,37.90
2018-04-18T16:07:58.835Z,37.80
2018-04-18T16:10:26.928Z,37.80
2018-04-18T16:12:55.093Z,38.70
2018-04-18T16:15:23.076Z,39.40
2018-04-18T16:17:51.235Z,39.10
2018-04-18T16:20:19.788Z,39.40
2018-04-18T16:22:48.201Z,39.70
2018-04-18T16:25:16.372Z,39.90
2018-04-18T16:27:44.236Z,40.60
2018-04-18T16:30:23.984Z,41.60
2018-04-18T16:32:52.048Z,42.20
2018-04-18T16:35:20.231Z,42.20
2018-04-18T16:37:48.498Z,42.80
2018-04-18T16:40:16.579Z,43.90
2018-04-18T16:42:46.078Z,44.80
2018-04-18T16:45:14.044Z,44.70
2018-04-18T16:47:42.119Z,45.00
2018-04-18T16:50:10.288Z,45.10
2018-04-18T16:52:38.678Z,45.30
2018-04-18T16:55:06.734Z,45.70
2018-04-18T16:57:34.709Z,46.60
2018-04-18T17:00:02.684Z,47.80
2018-04-18T17:02:30.583Z,47.90
2018-04-18T17:04:58.619Z,48.40
2018-04-18T17:07:26.485Z,47.80
2018-04-18T17:09:54.554Z,48.10
2018-04-18T17:12:22.523Z,49.20
2018-04-18T17:14:50.384Z,48.30
2018-04-18T17:17:18.453Z,49.30
2018-04-18T17:19:52.972Z,49.30
2018-04-18T17:22:21.895Z,50.20
2018-04-18T17:24:50.967Z,52.80
2018-04-18T17:27:20.038Z,52.00
2018-04-18T17:29:48.120Z,51.70
2018-04-18T17:32:16.679Z,53.00
2018-04-18T17:34:45.337Z,53.70
2018-04-18T17:37:17.991Z,54.80
2018-04-18T17:39:47.896Z,54.20
2018-04-18T17:42:18.359Z,54.20
2018-04-18T17:44:48.536Z,55.70
2018-04-18T17:47:17.799Z,57.40
2018-04-18T17:49:46.524Z,57.30
2018-04-18T17:52:15.031Z,59.80
2018-04-18T17:54:44.199Z,62.30
2018-04-18T17:57:12.599Z,62.20
2018-04-18T17:59:42.710Z,66.00
2018-04-18T18:02:11.098Z,65.90
2018-04-18T18:04:40.277Z,68.30
2018-04-18T18:07:09.751Z,68.20
2018-04-18T18:09:38.599Z,66.70
2018-04-18T18:12:07.881Z,70.60
2018-04-18T18:14:37.590Z,73.50
2018-04-18T18:17:06.679Z,74.60
2018-04-18T18:19:35.371Z,74.40
2018-04-18T18:22:04.798Z,74.70
2018-04-18T18:24:34.551Z,74.70
2018-04-18T18:27:02.968Z,72.40
2018-04-18T18:29:32.280Z,74.70
2018-04-18T18:32:02.015Z,73.20
2018-04-18T18:34:30.550Z,73.10
2018-04-18T18:36:58.970Z,74.00
2018-04-18T18:39:27.560Z,77.70
2018-04-18T18:41:56.072Z,78.70
2018-04-18T18:44:24.259Z,79.60
2018-04-18T18:46:52.631Z,81.50
2018-04-18T18:49:20.937Z,83.40
2018-04-18T18:51:49.377Z,85.60
2018-04-18T18:54:17.991Z,86.50
2018-04-18T18:56:47.080Z,87.80
2018-04-18T18:59:16.232Z,87.70
2018-04-18T19:01:44.637Z,89.30
2018-04-18T19:04:13.047Z,89.80
2018-04-18T19:06:42.231Z,90.20
2018-04-18T19:09:10.407Z,90.20
2018-04-18T19:11:38.698Z,87.70
2018-04-18T19:14:08.998Z,93.10
2018-04-18T19:16:39.019Z,93.00
2018-04-18T19:19:08.280Z,94.30
2018-04-18T19:21:38.760Z,93.70
2018-04-18T19:24:07.960Z,93.20
2018-04-18T19:26:37.433Z,93.30
2018-04-18T19:29:05.675Z,93.30
2018-04-18T19:31:34.216Z,93.90
2018-04-18T19:34:04.119Z,94.20
2018-04-18T19:36:33.274Z,95.00
2018-04-18T19:39:02.040Z,94.70
2018-04-18T19:41:31.275Z,94.70
2018-04-18T19:43:59.991Z,94.90
2018-04-18T19:46:29.519Z,95.20
2018-04-18T19:48:59.431Z,95.10
2018-04-18T19:51:28.097Z,95.10
2018-04-18T19:53:57.576Z,95.90
2018-04-18T19:56:25.978Z,95.50
2018-04-18T19:58:54.312Z,95.40
2018-04-18T20:01:22.728Z,95.40
2018-04-18T20:03:51.352Z,95.00
2018-04-18T20:06:20.361Z,95.50
2018-04-18T20:08:48.793Z,95.50
2018-04-18T20:11:18.200Z,95.80
2018-04-18T20:13:48.398Z,96.00
2018-04-18T20:16:17.160Z,96.00
2018-04-18T20:18:45.801Z,95.70
2018-04-18T20:21:15.032Z,96.00
2018-04-18T20:23:43.257Z,95.90
2018-04-18T20:26:12.551Z,96.10
2018-04-18T20:28:40.935Z,96.00
2018-04-18T20:31:09.928Z,96.20
2018-04-18T20:33:38.488Z,96.40
2018-04-18T20:36:07.278Z,96.80
2018-04-18T20:38:38.215Z,96.60
2018-04-18T20:41:06.711Z,96.60
2018-04-18T20:43:35.047Z,96.80
2018-04-18T20:46:03.577Z,97.00
2018-04-18T20:48:33.208Z,97.60
2018-04-18T20:51:01.879Z,97.60
2018-04-18T20:53:31.371Z,97.30
2018-04-18T20:56:00.757Z,97.90
2018-04-18T20:58:29.538Z,97.50
2018-04-18T21:00:57.999Z,97.50
2018-04-18T21:03:26.471Z,97.50
2018-04-18T21:05:54.696Z,97.80
2018-04-18T21:08:24.305Z,97.90
2018-04-18T21:10:53.289Z,97.80
2018-04-18T21:13:21.381Z,97.80
2018-04-18T21:15:50.250Z,98.50
2018-04-18T21:18:18.322Z,98.40
2018-04-18T21:20:46.709Z,98.40
2018-04-18T21:23:15.785Z,99.90
2018-04-18T21:25:44.116Z,99.90
2018-04-18T21:28:12.242Z,99.90
2018-04-18T21:30:40.206Z,99.50
2018-04-18T21:33:08.283Z,99.60
2018-04-18T21:35:36.454Z,99.70
2018-04-18T21:38:04.537Z,99.50
2018-04-18T21:40:33.218Z,99.90
2018-04-18T21:43:01.893Z,99.90
2018-04-18T21:45:31.494Z,99.90
2018-04-18T21:47:59.675Z,99.90
2018-04-18T21:50:27.637Z,99.90
2018-04-18T21:52:55.505Z,99.90
2018-04-18T21:55:23.372Z,99.90
2018-04-18T21:57:52.259Z,99.90
2018-04-18T22:00:20.368Z,99.90
2018-04-18T22:02:49.129Z,99.90
2018-04-18T22:05:17.586Z,99.90
2018-04-18T22:07:45.875Z,99.90
2018-04-18T22:10:13.944Z,99.90
2018-04-18T22:12:42.095Z,99.90
2018-04-18T22:15:11.323Z,99.90
2018-04-18T22:17:39.346Z,99.90
2018-04-18T22:20:07.562Z,99.90
2018-04-18T22:22:35.530Z,99.90
2018-04-18T22:25:03.793Z,99.90
2018-04-18T22:27:31.877Z,99.90
2018-04-18T22:30:00.874Z,99.90
2018-04-18T22:32:28.836Z,99.90
2018-04-18T22:34:56.907Z,99.90
2018-04-18T22:37:24.951Z,99.90
2018-04-18T22:39:53.051Z,99.90
2018-04-18T22:42:21.121Z,99.90
2018-04-18T22:44:49.800Z,99.90
2018-04-18T22:47:18.251Z,99.90
2018-04-18T22:49:46.327Z,99.90
2018-04-18T22:52:14.479Z,99.90
2018-04-18T22:54:42.884Z,99.90
2018-04-18T22:57:11.052Z,99.90
2018-04-18T22:59:39.258Z,99.90
2018-04-18T23:02:07.328Z,99.90
2018-04-18T23:04:35.383Z,99.90
2018-04-18T23:07:03.573Z,99.90
2018-04-18T23:09:31.849Z,99.90
2018-04-18T23:11:59.887Z,99.90
2018-04-18T23:14:27.987Z,99.90
2018-04-18T23:16:56.168Z,99.90
2018-04-18T23:19:24.028Z,99.90
2018-04-18T23:21:52.273Z,99.90
2018-04-18T23:24:20.477Z,99.90
2018-04-18T23:26:49.163Z,99.90
2018-04-18T23:29:17.440Z,99.90
2018-04-18T23:31:45.514Z,99.90
2018-04-18T23:34:13.587Z,99.90
2018-04-18T23:36:42.439Z,99.90
2018-04-18T23:39:10.730Z,99.90
2018-04-18T23:41:38.817Z,99.90
2018-04-18T23:44:06.787Z,99.90
2018-04-18T23:46:34.759Z,99.90
2018-04-18T23:49:02.827Z,99.90
2018-04-18T23:51:30.898Z,99.90
2018-04-18T23:54:00.199Z,99.90
2018-04-18T23:56:28.162Z,99.90
2018-04-18T23:58:56.136Z,99.90
